Time;durP1;ratioP1;P1;durP2;ratioP2;P2;SDS_P1;SDS_P2;PMS_P1;PMS_P2;Temp;Humidity;BMP_temperature;BMP_pressure;BME280_temperature;BME280_humidity;BME280_pressure;Samples;Min_cycle;Max_cycle;Signal;HPM_P1;HPM_P2
2020/12/08 00:00:43;;;;;;;24.23;12.10;;;-0.20;99.90;;;;;;5050763;28;20474;-50
2020/12/08 00:03:09;;;;;;;22.43;10.80;;;-0.30;99.90;;;;;;5050312;28;21244;-51
2020/12/08 00:05:36;;;;;;;21.27;11.00;;;-0.50;99.90;;;;;;5048999;28;20450;-49
2020/12/08 00:08:05;;;;;;;22.43;11.10;;;-0.60;99.90;;;;;;5060577;28;20446;-49
2020/12/08 00:10:32;;;;;;;21.87;11.63;;;-0.70;99.90;;;;;;5050548;28;20565;-50
2020/12/08 00:12:58;;;;;;;24.50;12.87;;;-0.70;99.90;;;;;;5050205;28;20459;-49
2020/12/08 00:15:26;;;;;;;22.87;11.30;;;-0.60;99.90;;;;;;5050452;28;20506;-50
2020/12/08 00:17:52;;;;;;;31.27;12.40;;;-0.50;99.90;;;;;;5049796;28;20445;-50
2020/12/08 00:20:19;;;;;;;27.03;11.60;;;-0.70;99.90;;;;;;5062566;28;20463;-49
2020/12/08 00:22:46;;;;;;;28.27;12.60;;;-0.80;99.90;;;;;;5051282;28;20527;-50
2020/12/08 00:25:13;;;;;;;24.13;11.60;;;-0.70;99.90;;;;;;5049851;28;20449;-49
2020/12/08 00:27:41;;;;;;;26.00;11.40;;;-0.70;99.90;;;;;;5049431;28;20997;-49
2020/12/08 00:30:09;;;;;;;22.83;10.90;;;-0.70;99.90;;;;;;5049553;28;20518;-50
2020/12/08 00:32:39;;;;;;;20.47;10.67;;;-0.60;99.90;;;;;;5049892;28;20449;-49
2020/12/08 00:35:06;;;;;;;32.97;12.20;;;-0.80;99.90;;;;;;5049980;28;20451;-50
2020/12/08 00:37:33;;;;;;;21.67;10.87;;;-0.70;99.90;;;;;;5050250;28;20446;-49
2020/12/08 00:39:59;;;;;;;23.47;11.83;;;-0.70;99.90;;;;;;5049940;28;20467;-49
2020/12/08 00:42:26;;;;;;;19.67;10.30;;;-0.70;99.90;;;;;;5049575;28;20451;-48
2020/12/08 00:44:52;;;;;;;37.87;11.47;;;-0.70;99.90;;;;;;5049399;28;20811;-49
2020/12/08 00:47:20;;;;;;;30.57;11.43;;;-0.70;99.90;;;;;;5049456;28;20489;-49
2020/12/08 00:49:47;;;;;;;23.57;10.10;;;-0.90;99.90;;;;;;5049577;28;20469;-49
2020/12/08 00:52:14;;;;;;;22.50;10.40;;;-0.90;99.90;;;;;;5050083;28;20459;-49
2020/12/08 00:54:40;;;;;;;18.73;9.57;;;-0.90;99.90;;;;;;5053198;28;20967;-49
2020/12/08 00:57:06;;;;;;;21.77;10.27;;;-0.90;99.90;;;;;;5053439;28;20451;-50
2020/12/08 00:59:33;;;;;;;21.93;10.53;;;-0.90;99.90;;;;;;5053187;28;20471;-49
2020/12/08 01:02:01;;;;;;;20.53;9.87;;;-1.10;99.90;;;;;;5053411;28;20457;-49
2020/12/08 01:04:28;;;;;;;15.37;9.00;;;-1.00;99.90;;;;;;5053766;28;20478;-49
2020/12/08 01:06:55;;;;;;;29.40;9.97;;;-1.00;99.90;;;;;;5053784;28;20578;-49
2020/12/08 01:09:21;;;;;;;16.90;9.27;;;-1.00;99.90;;;;;;5053610;28;20449;-49
2020/12/08 01:11:48;;;;;;;37.63;10.33;;;-1.10;99.90;;;;;;5053291;28;20475;-49
2020/12/08 01:14:15;;;;;;;18.40;8.90;;;-1.40;99.90;;;;;;5053680;28;20456;-50
2020/12/08 01:16:42;;;;;;;18.37;9.20;;;-1.40;99.90;;;;;;5052445;28;20474;-49
2020/12/08 01:19:08;;;;;;;18.67;9.47;;;-1.40;99.90;;;;;;5052883;28;20509;-49
2020/12/08 01:21:35;;;;;;;17.10;8.87;;;-1.40;99.90;;;;;;5053446;28;20456;-49
2020/12/08 01:24:02;;;;;;;21.27;10.00;;;-1.30;99.90;;;;;;5053480;28;20443;-50
2020/12/08 01:26:29;;;;;;;18.23;9.73;;;-1.30;99.90;;;;;;5052441;28;20484;-48
2020/12/08 01:28:55;;;;;;;19.97;10.83;;;-1.10;99.90;;;;;;5052807;28;20454;-49
2020/12/08 01:31:32;;;;;;;19.50;10.00;;;-1.00;99.90;;;;;;5052643;28;20481;-50
2020/12/08 01:34:04;;;;;;;17.10;10.07;;;-1.20;99.90;;;;;;5053238;28;20444;-49
2020/12/08 01:36:30;;;;;;;19.27;9.63;;;-1.30;99.90;;;;;;5053054;28;20449;-49
2020/12/08 01:39:01;;;;;;;21.13;11.10;;;-1.40;99.90;;;;;;5052765;28;20510;-48
2020/12/08 01:41:29;;;;;;;21.73;10.83;;;-1.40;99.90;;;;;;5052865;28;20506;-49
2020/12/08 01:44:00;;;;;;;18.13;10.57;;;-1.50;99.90;;;;;;5051816;28;20868;-49
2020/12/08 01:46:27;;;;;;;20.40;11.13;;;-1.40;99.90;;;;;;5052353;28;20492;-50
2020/12/08 01:48:55;;;;;;;21.43;10.67;;;-1.20;99.90;;;;;;5052580;28;21070;-51
2020/12/08 01:51:22;;;;;;;21.27;11.40;;;-1.20;99.90;;;;;;5052621;28;20840;-49
2020/12/08 01:53:51;;;;;;;18.03;10.80;;;-1.10;99.90;;;;;;5052680;28;20526;-50
2020/12/08 01:56:19;;;;;;;19.33;10.67;;;-1.40;99.90;;;;;;5052523;28;20464;-49
2020/12/08 01:58:46;;;;;;;18.30;9.20;;;-1.30;99.90;;;;;;5052443;28;20448;-49
2020/12/08 02:01:14;;;;;;;19.13;10.07;;;-1.10;99.90;;;;;;5052906;28;20472;-49
2020/12/08 02:03:42;;;;;;;18.63;10.80;;;-1.10;99.90;;;;;;5052932;28;20452;-49
2020/12/08 02:06:08;;;;;;;21.07;9.67;;;-1.10;99.90;;;;;;5051378;28;20485;-49
2020/12/08 02:08:36;;;;;;;17.90;10.80;;;-1.00;99.90;;;;;;5052060;28;20513;-49
2020/12/08 02:11:04;;;;;;;17.40;9.67;;;-1.00;99.90;;;;;;5051899;28;20488;-49
2020/12/08 02:13:30;;;;;;;20.23;10.37;;;-1.00;99.90;;;;;;5052015;28;20978;-49
2020/12/08 02:15:58;;;;;;;18.00;9.40;;;-0.80;99.90;;;;;;5052468;28;20479;-49
2020/12/08 02:18:25;;;;;;;16.40;9.30;;;-0.90;99.90;;;;;;5052242;28;20507;-49
2020/12/08 02:20:56;;;;;;;17.53;9.30;;;-0.90;99.90;;;;;;5051988;28;20495;-49
2020/12/08 02:23:23;;;;;;;17.10;9.17;;;-0.80;99.90;;;;;;5052084;28;20440;-49
2020/12/08 02:25:57;;;;;;;12.90;8.33;;;-0.80;99.90;;;;;;5051602;28;20449;-49
2020/12/08 02:28:24;;;;;;;14.03;8.77;;;-0.70;99.90;;;;;;5052077;28;20451;-49
2020/12/08 02:30:50;;;;;;;16.03;8.23;;;-0.60;99.90;;;;;;5076428;22;20500;-53
2020/12/08 02:33:17;;;;;;;17.43;8.70;;;-0.50;99.90;;;;;;5051816;28;20495;-53
2020/12/08 02:35:43;;;;;;;17.13;9.37;;;-0.50;99.90;;;;;;5052164;28;20443;-53
2020/12/08 02:38:11;;;;;;;14.60;8.37;;;-0.50;99.90;;;;;;5070967;28;20502;-53
2020/12/08 02:40:37;;;;;;;16.03;8.50;;;-0.50;99.90;;;;;;5070411;28;20465;-53
2020/12/08 02:43:04;;;;;;;18.20;8.93;;;-0.50;99.90;;;;;;5064500;28;20449;-53
2020/12/08 02:45:30;;;;;;;19.77;10.33;;;-0.40;99.90;;;;;;5051606;28;21122;-53
2020/12/08 02:47:57;;;;;;;16.47;9.17;;;-0.60;99.90;;;;;;5052913;28;20515;-53
2020/12/08 02:50:23;;;;;;;17.60;9.20;;;-0.60;99.90;;;;;;5052730;28;20470;-53
2020/12/08 02:52:50;;;;;;;18.70;9.00;;;-0.70;99.90;;;;;;5070140;28;20490;-53
2020/12/08 02:55:17;;;;;;;17.90;9.67;;;-0.60;99.90;;;;;;5072254;28;20966;-53
2020/12/08 02:57:44;;;;;;;18.50;9.37;;;-0.60;99.90;;;;;;5059725;28;20544;-53
2020/12/08 03:00:10;;;;;;;17.77;8.43;;;-0.70;99.90;;;;;;5051675;28;20539;-53
2020/12/08 03:02:37;;;;;;;14.57;8.40;;;-0.90;99.90;;;;;;5053238;28;20462;-53
2020/12/08 03:05:03;;;;;;;14.80;7.27;;;-1.10;99.90;;;;;;5052704;28;20506;-52
2020/12/08 03:07:30;;;;;;;13.90;7.80;;;-0.80;99.90;;;;;;5051946;28;20485;-52
2020/12/08 03:09:56;;;;;;;14.67;7.80;;;-0.60;99.90;;;;;;5051445;28;20531;-53
2020/12/08 03:12:23;;;;;;;13.30;7.73;;;-0.50;99.90;;;;;;5051528;28;20503;-53
2020/12/08 03:14:50;;;;;;;11.77;7.00;;;-0.50;99.90;;;;;;5056480;28;20508;-53
2020/12/08 03:17:16;;;;;;;12.43;7.03;;;-0.40;99.90;;;;;;5069231;28;20513;-52
2020/12/08 03:19:43;;;;;;;14.40;7.70;;;-0.50;99.90;;;;;;5053885;28;20460;-53
2020/12/08 03:22:10;;;;;;;17.77;8.50;;;-0.60;99.90;;;;;;5071539;28;20452;-53
2020/12/08 03:24:37;;;;;;;14.37;7.87;;;-0.50;99.90;;;;;;5069291;28;20449;-53
2020/12/08 03:27:03;;;;;;;16.83;8.43;;;-0.40;99.90;;;;;;5051364;28;20477;-53
2020/12/08 03:29:30;;;;;;;20.20;9.77;;;-0.30;99.90;;;;;;5052568;28;20797;-52
2020/12/08 03:31:57;;;;;;;15.30;8.80;;;-0.30;99.90;;;;;;5051403;28;21001;-52
2020/12/08 03:34:23;;;;;;;15.20;7.67;;;-0.30;99.90;;;;;;5055714;28;20501;-53
2020/12/08 03:36:50;;;;;;;17.47;8.60;;;-0.10;99.90;;;;;;5031631;28;20811;-53
2020/12/08 03:39:17;;;;;;;17.60;8.70;;;0.00;99.90;;;;;;5041177;28;20456;-52
2020/12/08 03:41:43;;;;;;;18.93;8.20;;;0.00;99.90;;;;;;5070835;28;20501;-53
2020/12/08 03:44:10;;;;;;;19.70;8.10;;;0.00;99.90;;;;;;5053821;28;20460;-53
2020/12/08 03:46:38;;;;;;;15.80;8.40;;;0.10;99.90;;;;;;5063864;28;20904;-53
2020/12/08 03:49:04;;;;;;;15.00;7.70;;;0.20;99.90;;;;;;5050839;28;20512;-53
2020/12/08 03:51:31;;;;;;;14.20;7.73;;;0.40;99.90;;;;;;5052090;28;21012;-52
2020/12/08 03:54:01;;;;;;;13.70;7.73;;;0.50;99.90;;;;;;5051209;28;20450;-53
2020/12/08 03:56:27;;;;;;;14.80;7.43;;;0.10;99.90;;;;;;5064144;28;20453;-53
2020/12/08 03:58:58;;;;;;;15.50;7.77;;;0.00;99.90;;;;;;5050484;28;20458;-53
2020/12/08 04:01:25;;;;;;;16.90;8.17;;;-0.10;99.90;;;;;;5051979;28;20499;-53
2020/12/08 04:03:52;;;;;;;15.20;7.77;;;-0.10;99.90;;;;;;5051986;28;20991;-53
2020/12/08 04:06:19;;;;;;;18.33;8.90;;;0.00;99.90;;;;;;5061556;28;20963;-53
2020/12/08 04:08:46;;;;;;;19.43;8.87;;;0.30;99.90;;;;;;5053885;28;20489;-53
2020/12/08 04:11:14;;;;;;;15.10;7.97;;;0.60;99.90;;;;;;5050814;28;20482;-52
2020/12/08 04:13:40;;;;;;;16.83;8.40;;;0.30;99.90;;;;;;5050744;28;20451;-53
2020/12/08 04:16:12;;;;;;;16.33;8.87;;;0.20;99.90;;;;;;5050629;28;20447;-53
2020/12/08 04:18:38;;;;;;;14.97;7.80;;;0.10;99.90;;;;;;5054939;28;20450;-53
2020/12/08 04:21:06;;;;;;;14.60;7.80;;;0.20;99.90;;;;;;5050274;28;20474;-53
2020/12/08 04:23:32;;;;;;;14.70;7.80;;;0.10;99.90;;;;;;5050564;28;20450;-52
2020/12/08 04:25:59;;;;;;;14.80;6.80;;;0.30;99.90;;;;;;5053576;28;20453;-53
2020/12/08 04:28:26;;;;;;;14.83;7.20;;;0.40;99.90;;;;;;5061862;28;20484;-53
2020/12/08 04:30:52;;;;;;;13.73;6.97;;;0.50;99.90;;;;;;5057485;28;20478;-52
2020/12/08 04:33:19;;;;;;;13.23;7.20;;;0.60;99.90;;;;;;5051732;28;20520;-52
2020/12/08 04:35:45;;;;;;;17.70;7.43;;;0.50;99.90;;;;;;5050870;28;20460;-53
2020/12/08 04:38:13;;;;;;;15.83;7.20;;;0.50;99.90;;;;;;5060742;28;20446;-53
2020/12/08 04:40:39;;;;;;;19.40;8.40;;;0.60;99.90;;;;;;5070442;28;20479;-53
2020/12/08 04:43:06;;;;;;;18.47;7.90;;;0.50;99.90;;;;;;5060470;28;20994;-53
2020/12/08 04:45:33;;;;;;;14.53;7.47;;;0.50;99.90;;;;;;5050026;28;20455;-52
2020/12/08 05:31:49;;;;;;;14.23;7.43;;;0.30;99.90;;;;;;5046771;28;20452;-53
2020/12/08 05:41:03;;;;;;;21.10;11.07;;;0.30;99.90;;;;;;5044138;28;20937;-52
2020/12/08 05:43:35;;;;;;;21.00;10.37;;;0.20;99.90;;;;;;5053412;28;20476;-53
2020/12/08 05:46:04;;;;;;;21.60;9.90;;;0.10;99.90;;;;;;5054829;28;20462;-52
2020/12/08 05:48:32;;;;;;;15.70;7.80;;;0.10;99.90;;;;;;5053294;28;20481;-53
2020/12/08 05:51:01;;;;;;;15.83;8.30;;;0.40;99.90;;;;;;5050862;28;20521;-52
2020/12/08 05:53:28;;;;;;;17.67;7.63;;;0.20;99.90;;;;;;5054013;28;20536;-52
2020/12/08 05:56:03;;;;;;;14.90;7.47;;;0.10;99.90;;;;;;5053640;28;20457;-52
2020/12/08 05:58:30;;;;;;;16.10;7.73;;;0.00;99.90;;;;;;5052545;28;20993;-52
2020/12/08 06:01:01;;;;;;;14.97;7.83;;;0.10;99.90;;;;;;5052523;28;20500;-52
2020/12/08 06:03:28;;;;;;;14.90;7.40;;;0.30;99.90;;;;;;5052719;28;20489;-52
2020/12/08 06:06:06;;;;;;;13.80;7.30;;;0.30;99.90;;;;;;5056277;28;20455;-52
2020/12/08 06:08:42;;;;;;;17.70;7.90;;;0.20;99.90;;;;;;5052283;28;20570;-53
2020/12/08 06:11:09;;;;;;;13.87;7.00;;;0.20;99.90;;;;;;5056440;28;20492;-53
2020/12/08 06:13:36;;;;;;;16.10;7.20;;;0.10;99.90;;;;;;5052396;28;20442;-52
2020/12/08 06:16:14;;;;;;;13.60;8.10;;;0.10;99.90;;;;;;5053491;28;20503;-52
2020/12/08 06:18:41;;;;;;;14.27;7.60;;;0.00;99.90;;;;;;5052110;28;20448;-52
2020/12/08 06:21:20;;;;;;;16.10;7.87;;;-0.10;99.90;;;;;;5048637;28;20471;-53
2020/12/08 06:23:47;;;;;;;11.97;6.73;;;0.10;99.90;;;;;;5052435;28;20865;-52
2020/12/08 06:26:21;;;;;;;14.03;6.97;;;0.30;99.90;;;;;;5057182;28;20516;-53
2020/12/08 06:28:48;;;;;;;14.50;7.33;;;0.30;99.90;;;;;;5051811;28;20439;-52
2020/12/08 06:31:15;;;;;;;13.40;7.50;;;0.20;99.90;;;;;;5053898;28;21115;-52
2020/12/08 06:33:49;;;;;;;15.00;7.70;;;0.00;99.90;;;;;;5051958;28;20508;-52
2020/12/08 06:36:18;;;;;;;14.27;7.40;;;0.00;99.90;;;;;;5053668;28;20853;-52
2020/12/08 06:38:55;;;;;;;13.47;7.87;;;0.10;99.90;;;;;;5051700;28;20492;-52
2020/12/08 06:41:27;;;;;;;16.83;9.03;;;-0.10;99.90;;;;;;5051931;28;20514;-52
2020/12/08 06:43:54;;;;;;;14.27;8.37;;;-0.20;99.90;;;;;;5051847;28;20899;-52
2020/12/08 06:46:20;;;;;;;20.57;10.10;;;-0.10;99.90;;;;;;5051954;28;20496;-52
2020/12/08 06:49:03;;;;;;;25.07;12.30;;;-0.10;99.90;;;;;;5051639;28;20434;-52
2020/12/08 06:51:31;;;;;;;21.93;11.13;;;-0.10;99.90;;;;;;5050844;28;20468;-51
2020/12/08 06:53:58;;;;;;;16.40;8.47;;;-0.10;99.90;;;;;;5052790;28;20453;-52
2020/12/08 06:56:32;;;;;;;16.67;8.70;;;-0.10;99.90;;;;;;5053262;28;20478;-52
2020/12/08 06:58:58;;;;;;;18.70;9.07;;;0.00;99.90;;;;;;5052028;28;20854;-52
2020/12/08 07:01:25;;;;;;;18.37;8.77;;;0.00;99.90;;;;;;5052195;28;20469;-52
2020/12/08 07:03:56;;;;;;;15.40;7.97;;;0.00;99.90;;;;;;5051624;28;20446;-52
2020/12/08 07:06:25;;;;;;;12.33;6.70;;;0.10;99.90;;;;;;5047657;28;20515;-52
2020/12/08 07:08:54;;;;;;;13.77;7.47;;;0.20;99.90;;;;;;5052525;28;20893;-53
2020/12/08 07:11:21;;;;;;;14.30;7.90;;;0.20;99.90;;;;;;5050388;28;20516;-52
2020/12/08 07:13:56;;;;;;;14.77;7.10;;;0.20;99.90;;;;;;5050645;28;20447;-52
2020/12/08 07:16:24;;;;;;;15.00;7.10;;;0.20;99.90;;;;;;5050223;28;20520;-52
2020/12/08 07:18:51;;;;;;;12.87;6.87;;;0.20;99.90;;;;;;5050315;28;20855;-52
2020/12/08 07:21:19;;;;;;;14.30;7.40;;;0.30;99.90;;;;;;5050104;28;20526;-52
2020/12/08 07:23:45;;;;;;;13.63;7.70;;;0.40;99.90;;;;;;5050374;28;20524;-52
2020/12/08 07:26:14;;;;;;;12.97;7.07;;;0.40;99.90;;;;;;5050426;28;20960;-52
2020/12/08 07:28:41;;;;;;;13.90;6.57;;;0.60;99.90;;;;;;5050143;28;20483;-52
2020/12/08 07:31:20;;;;;;;13.47;6.93;;;0.70;99.90;;;;;;5050240;28;20472;-51
2020/12/08 07:33:47;;;;;;;11.87;6.70;;;0.70;99.90;;;;;;5047648;28;20460;-51
2020/12/08 07:36:28;;;;;;;10.13;5.60;;;0.80;99.90;;;;;;5049758;28;20489;-52
2020/12/08 07:38:56;;;;;;;14.87;7.20;;;0.70;99.90;;;;;;5049824;28;20439;-52
2020/12/08 07:41:25;;;;;;;11.53;6.33;;;0.80;99.90;;;;;;5049164;28;20564;-52
2020/12/08 07:43:52;;;;;;;12.57;7.40;;;0.90;99.90;;;;;;5049663;28;20444;-52
2020/12/08 07:46:23;;;;;;;14.50;7.90;;;0.90;99.90;;;;;;5051448;28;20448;-52
2020/12/08 07:49:01;;;;;;;17.17;9.10;;;1.00;99.90;;;;;;5049561;28;20486;-52
2020/12/08 07:51:28;;;;;;;13.93;7.77;;;1.10;99.90;;;;;;5049087;28;20848;-52
2020/12/08 07:53:55;;;;;;;15.03;9.00;;;1.10;99.90;;;;;;5047262;28;20476;-52
2020/12/08 07:56:27;;;;;;;17.70;9.50;;;1.00;99.90;;;;;;5049398;28;20451;-53
2020/12/08 07:58:54;;;;;;;17.20;9.33;;;1.00;99.90;;;;;;5048463;28;21010;-52
2020/12/08 08:01:20;;;;;;;20.20;10.60;;;1.10;99.90;;;;;;5049019;28;20471;-52
2020/12/08 08:03:47;;;;;;;22.70;11.70;;;1.20;99.90;;;;;;5049611;28;20452;-52
2020/12/08 08:06:15;;;;;;;15.73;8.70;;;1.10;99.90;;;;;;5049226;28;20443;-52
2020/12/08 08:08:42;;;;;;;26.17;11.57;;;1.00;99.90;;;;;;5048574;28;20479;-52
2020/12/08 08:11:08;;;;;;;18.73;9.77;;;1.00;99.90;;;;;;5049179;28;20475;-52
2020/12/08 08:13:37;;;;;;;19.50;9.70;;;1.00;99.90;;;;;;5053679;28;20436;-52
2020/12/08 08:16:03;;;;;;;15.80;8.73;;;1.10;99.90;;;;;;5051023;28;20833;-52
2020/12/08 08:18:31;;;;;;;15.83;8.57;;;1.30;99.90;;;;;;5048740;28;20463;-52
2020/12/08 08:20:59;;;;;;;19.17;10.20;;;1.40;99.90;;;;;;5049040;28;20474;-52
2020/12/08 08:23:25;;;;;;;15.90;9.60;;;1.40;99.90;;;;;;5049395;28;20447;-52
2020/12/08 08:25:52;;;;;;;15.63;9.10;;;1.50;99.90;;;;;;5049097;28;20450;-52
2020/12/08 08:28:19;;;;;;;20.07;10.03;;;1.60;99.90;;;;;;5050214;28;21156;-52
2020/12/08 08:30:47;;;;;;;20.47;10.63;;;1.60;99.90;;;;;;5048355;28;20478;-52
2020/12/08 08:33:13;;;;;;;21.37;11.50;;;1.70;99.90;;;;;;5049126;28;20451;-52
2020/12/08 08:35:40;;;;;;;16.80;9.60;;;1.80;99.90;;;;;;5049182;28;20452;-52
2020/12/08 08:38:07;;;;;;;20.23;11.90;;;1.80;99.90;;;;;;5049237;28;20513;-52
2020/12/08 08:40:33;;;;;;;21.83;11.73;;;1.70;99.90;;;;;;5049027;28;20459;-52
2020/12/08 08:43:00;;;;;;;21.23;11.73;;;1.60;99.90;;;;;;5049365;28;20447;-52
2020/12/08 08:45:27;;;;;;;27.33;13.70;;;1.70;99.90;;;;;;5048999;28;20459;-52
2020/12/08 08:47:55;;;;;;;26.47;13.57;;;1.80;99.90;;;;;;5048845;28;20486;-52
2020/12/08 08:50:21;;;;;;;23.33;13.13;;;1.90;99.90;;;;;;5048840;28;20457;-52
2020/12/08 08:52:49;;;;;;;26.80;15.87;;;1.90;99.90;;;;;;5045256;28;20471;-52
2020/12/08 08:55:15;;;;;;;30.27;16.50;;;2.00;99.90;;;;;;5048696;28;20458;-52
2020/12/08 08:57:42;;;;;;;29.50;15.60;;;2.10;99.90;;;;;;5048939;28;20428;-52
2020/12/08 09:00:10;;;;;;;28.60;15.63;;;2.10;99.90;;;;;;5048498;28;20826;-52
2020/12/08 09:02:37;;;;;;;23.20;13.40;;;2.20;99.90;;;;;;5048818;28;20439;-52
2020/12/08 09:05:06;;;;;;;26.27;15.00;;;2.20;99.90;;;;;;5048637;28;20462;-52
2020/12/08 09:07:32;;;;;;;25.47;13.00;;;2.20;99.90;;;;;;5048386;28;20486;-52
2020/12/08 09:10:00;;;;;;;23.20;12.50;;;2.10;99.90;;;;;;5049004;28;20498;-52
2020/12/08 09:12:26;;;;;;;25.30;12.90;;;2.00;99.90;;;;;;5045261;28;20473;-52
2020/12/08 09:14:57;;;;;;;26.83;13.77;;;1.90;99.90;;;;;;5054358;28;20443;-52
2020/12/08 09:17:24;;;;;;;28.20;13.93;;;1.90;99.90;;;;;;5056808;28;20470;-52
2020/12/08 09:19:51;;;;;;;25.23;13.47;;;2.10;99.90;;;;;;5057472;28;20471;-52
2020/12/08 09:22:18;;;;;;;22.03;11.83;;;2.20;99.90;;;;;;5057725;28;20439;-52
2020/12/08 09:24:45;;;;;;;23.83;13.20;;;2.40;99.90;;;;;;5057705;28;20811;-53
2020/12/08 09:27:14;;;;;;;18.70;9.97;;;2.50;99.90;;;;;;5057914;28;20510;-52
2020/12/08 09:29:41;;;;;;;17.30;9.63;;;2.80;99.90;;;;;;5057092;28;20442;-52
2020/12/08 09:32:08;;;;;;;17.30;9.80;;;2.90;99.90;;;;;;5057356;28;20466;-52
2020/12/08 09:34:34;;;;;;;15.47;8.97;;;2.90;99.90;;;;;;5056922;28;20447;-52
2020/12/08 09:37:01;;;;;;;17.13;9.50;;;2.80;99.90;;;;;;5060651;28;20527;-52
2020/12/08 09:39:30;;;;;;;15.20;9.50;;;3.00;99.90;;;;;;5056799;28;20449;-52
2020/12/08 09:41:57;;;;;;;19.13;9.53;;;3.00;99.90;;;;;;5057500;28;20455;-52
2020/12/08 09:44:25;;;;;;;25.00;9.97;;;3.20;99.90;;;;;;5056978;28;20971;-52
2020/12/08 09:46:52;;;;;;;18.40;9.73;;;3.20;99.90;;;;;;5056459;28;20442;-52
2020/12/08 09:49:19;;;;;;;20.10;10.80;;;3.20;99.90;;;;;;5056053;28;20439;-52
2020/12/08 09:51:47;;;;;;;20.10;10.93;;;3.20;99.90;;;;;;5058512;28;20865;-52
2020/12/08 09:54:14;;;;;;;21.90;11.10;;;2.90;99.90;;;;;;5056995;28;20457;-52
2020/12/08 09:56:46;;;;;;;23.90;12.70;;;3.10;99.90;;;;;;5056111;28;20447;-52
2020/12/08 09:59:12;;;;;;;20.83;11.30;;;3.20;99.90;;;;;;5056317;28;20443;-52
2020/12/08 10:01:39;;;;;;;18.83;10.20;;;3.50;99.90;;;;;;5056464;28;21279;-52
2020/12/08 10:04:06;;;;;;;18.13;10.33;;;3.50;99.90;;;;;;5057527;28;20977;-52
2020/12/08 10:06:33;;;;;;;21.27;11.50;;;3.40;99.90;;;;;;5055680;28;20482;-52
2020/12/08 10:09:03;;;;;;;22.40;12.50;;;3.30;99.90;;;;;;5055642;28;20518;-52
2020/12/08 10:11:30;;;;;;;25.27;12.27;;;3.30;99.90;;;;;;5054997;28;20460;-52
2020/12/08 10:13:57;;;;;;;24.33;12.93;;;3.30;99.90;;;;;;5050197;28;20486;-52
2020/12/08 10:16:25;;;;;;;23.47;12.70;;;3.40;99.90;;;;;;5051967;28;20443;-52
2020/12/08 10:18:53;;;;;;;26.33;13.97;;;3.50;99.90;;;;;;5052787;28;20856;-52
2020/12/08 10:21:20;;;;;;;23.60;13.07;;;3.50;99.90;;;;;;5052766;28;20460;-52
2020/12/08 10:23:47;;;;;;;27.93;14.80;;;3.50;99.90;;;;;;5052734;28;20455;-53
2020/12/08 10:26:13;;;;;;;28.27;14.27;;;3.60;99.90;;;;;;5050518;28;20447;-52
2020/12/08 10:28:40;;;;;;;27.20;14.10;;;3.60;99.90;;;;;;5051089;28;20486;-52
2020/12/08 10:31:08;;;;;;;27.20;13.87;;;3.60;99.90;;;;;;5051202;28;20562;-52
2020/12/08 10:33:34;;;;;;;28.80;14.67;;;3.60;99.90;;;;;;5053429;28;20442;-52
2020/12/08 10:36:01;;;;;;;26.73;15.10;;;3.60;99.90;;;;;;5050790;28;20467;-52
2020/12/08 10:38:28;;;;;;;29.67;15.30;;;3.70;99.90;;;;;;5054039;28;20444;-52
2020/12/08 10:40:55;;;;;;;30.13;15.33;;;3.60;99.90;;;;;;5050864;28;20456;-52
2020/12/08 10:43:21;;;;;;;31.20;15.50;;;3.70;99.90;;;;;;5050936;28;20435;-52
2020/12/08 10:45:48;;;;;;;34.90;17.67;;;3.70;99.90;;;;;;5050954;28;20454;-52
2020/12/08 10:48:16;;;;;;;29.20;16.63;;;3.80;99.90;;;;;;5051187;28;20455;-52
2020/12/08 10:50:43;;;;;;;33.53;17.50;;;3.90;99.90;;;;;;5050854;28;21034;-52
2020/12/08 10:53:10;;;;;;;31.73;16.90;;;3.90;99.90;;;;;;5051307;28;20452;-53
2020/12/08 10:55:36;;;;;;;29.60;15.70;;;4.00;99.90;;;;;;5053569;28;20444;-52
2020/12/08 10:58:03;;;;;;;36.93;18.23;;;4.10;99.90;;;;;;5051069;28;20444;-51
2020/12/08 11:00:30;;;;;;;31.97;16.93;;;4.10;99.90;;;;;;5050460;28;20456;-52
2020/12/08 11:02:58;;;;;;;32.00;16.87;;;3.90;99.90;;;;;;5048970;28;20448;-52
2020/12/08 11:05:25;;;;;;;29.77;15.30;;;3.70;99.90;;;;;;5050935;28;20436;-52
2020/12/08 11:07:52;;;;;;;30.37;14.63;;;3.70;99.90;;;;;;5050749;28;20483;-52
2020/12/08 11:10:18;;;;;;;28.60;14.67;;;3.30;99.90;;;;;;5050355;28;20468;-52
2020/12/08 11:12:45;;;;;;;31.80;15.27;;;3.30;99.90;;;;;;5050545;28;20442;-51
2020/12/08 11:15:12;;;;;;;30.20;14.80;;;3.50;99.90;;;;;;5050709;28;20811;-52
2020/12/08 11:17:41;;;;;;;25.23;13.10;;;3.30;99.90;;;;;;5051779;28;20451;-52
2020/12/08 11:20:08;;;;;;;27.10;13.10;;;3.20;99.90;;;;;;5050335;28;20470;-52
2020/12/08 11:22:36;;;;;;;23.40;12.80;;;3.10;99.90;;;;;;5050796;28;20439;-52
2020/12/08 11:25:04;;;;;;;22.47;12.13;;;3.00;99.90;;;;;;5054282;28;20823;-52
2020/12/08 11:27:31;;;;;;;21.93;11.97;;;3.10;99.90;;;;;;5054308;28;20492;-51
2020/12/08 11:29:58;;;;;;;23.33;12.30;;;3.10;99.90;;;;;;5051320;28;20480;-52
2020/12/08 11:32:24;;;;;;;22.57;12.70;;;3.10;99.90;;;;;;5050994;28;20447;-52
2020/12/08 11:34:51;;;;;;;22.10;13.40;;;3.10;99.90;;;;;;5051478;28;20955;-52
2020/12/08 11:37:18;;;;;;;24.57;12.93;;;3.10;99.90;;;;;;5050549;28;20455;-52
2020/12/08 11:39:46;;;;;;;18.23;10.97;;;3.30;99.90;;;;;;5050155;28;20819;-52
2020/12/08 11:42:14;;;;;;;21.07;11.10;;;3.40;99.90;;;;;;5052278;28;20494;-52
2020/12/08 11:44:43;;;;;;;19.40;11.10;;;3.50;99.90;;;;;;5050001;28;20959;-52
2020/12/08 11:47:10;;;;;;;21.93;11.13;;;3.50;99.90;;;;;;5054989;28;20543;-52
2020/12/08 11:49:37;;;;;;;23.10;11.47;;;3.40;99.90;;;;;;5051191;28;20456;-52
2020/12/08 11:52:09;;;;;;;21.60;11.97;;;3.20;99.90;;;;;;5051218;28;20530;-51
2020/12/08 11:54:36;;;;;;;21.20;11.43;;;3.10;99.90;;;;;;5051247;28;20463;-52
2020/12/08 11:57:04;;;;;;;22.67;11.23;;;3.00;99.90;;;;;;5051124;28;20458;-52
2020/12/08 11:59:30;;;;;;;18.13;9.20;;;2.80;99.90;;;;;;5050071;28;20828;-51
2020/12/08 12:01:57;;;;;;;20.40;10.10;;;2.60;99.90;;;;;;5051088;28;20447;-52
2020/12/08 12:04:24;;;;;;;17.53;9.27;;;2.50;99.90;;;;;;5050283;28;20466;-52
2020/12/08 12:06:51;;;;;;;19.50;10.43;;;2.40;99.90;;;;;;5050713;28;20968;-52
2020/12/08 12:09:19;;;;;;;22.10;11.40;;;2.50;99.90;;;;;;5050339;28;20479;-51
2020/12/08 12:11:45;;;;;;;23.63;11.97;;;2.60;99.90;;;;;;5050278;28;21000;-52
2020/12/08 12:14:13;;;;;;;25.77;11.70;;;2.50;99.90;;;;;;5050786;28;20448;-52
2020/12/08 12:16:39;;;;;;;22.57;11.60;;;2.60;99.90;;;;;;5050428;28;20455;-52
2020/12/08 12:19:06;;;;;;;23.10;11.67;;;2.70;99.90;;;;;;5050330;28;20857;-52
2020/12/08 12:21:32;;;;;;;23.50;11.87;;;2.70;99.90;;;;;;5050129;28;20467;-52
2020/12/08 12:23:59;;;;;;;22.53;11.70;;;2.90;99.90;;;;;;5049064;28;20459;-51
2020/12/08 12:26:26;;;;;;;24.00;10.87;;;3.10;99.90;;;;;;5050686;28;20446;-51
2020/12/08 12:28:53;;;;;;;24.03;11.80;;;3.20;99.90;;;;;;5049074;28;20502;-52
2020/12/08 12:31:20;;;;;;;22.43;11.00;;;3.10;99.90;;;;;;5048829;28;20479;-51
2020/12/08 12:33:49;;;;;;;24.10;12.27;;;3.10;99.90;;;;;;5045243;28;20498;-52
2020/12/08 12:36:16;;;;;;;24.40;12.60;;;3.00;99.90;;;;;;5049344;28;20451;-52
2020/12/08 12:38:43;;;;;;;26.50;13.10;;;3.10;99.90;;;;;;5047949;28;20509;-52
2020/12/08 12:41:09;;;;;;;20.70;11.53;;;3.10;99.90;;;;;;5049117;28;20675;-52
2020/12/08 12:43:37;;;;;;;25.00;11.30;;;3.20;99.90;;;;;;5045293;28;20436;-52
2020/12/08 12:46:03;;;;;;;23.53;12.20;;;3.20;99.90;;;;;;5048672;28;20458;-52
2020/12/08 12:48:31;;;;;;;21.37;11.00;;;3.00;99.90;;;;;;5049509;28;20475;-51
2020/12/08 12:50:58;;;;;;;25.77;12.27;;;3.00;99.90;;;;;;5051720;28;20475;-52
2020/12/08 12:53:25;;;;;;;28.30;13.33;;;2.60;99.90;;;;;;5052565;28;20439;-52
2020/12/08 12:55:52;;;;;;;26.40;14.00;;;2.70;99.90;;;;;;5052568;28;20439;-53
2020/12/08 12:58:18;;;;;;;27.93;13.10;;;2.80;99.90;;;;;;5052505;28;20436;-52
2020/12/08 13:00:45;;;;;;;25.70;12.47;;;2.80;99.90;;;;;;5052178;28;20460;-52
2020/12/08 13:03:13;;;;;;;26.43;12.50;;;2.90;99.90;;;;;;5052584;28;20436;-53
2020/12/08 13:05:41;;;;;;;26.23;13.80;;;3.00;99.90;;;;;;5053326;28;21039;-53
2020/12/08 13:08:08;;;;;;;25.77;12.77;;;3.00;99.90;;;;;;5053333;28;21001;-52
2020/12/08 13:10:34;;;;;;;27.87;13.07;;;3.10;99.90;;;;;;5052160;28;20467;-53
2020/12/08 13:13:03;;;;;;;26.97;13.23;;;3.10;99.90;;;;;;5052227;28;20961;-52
2020/12/08 13:15:30;;;;;;;25.97;13.23;;;3.10;99.90;;;;;;5053671;28;20505;-52
2020/12/08 13:17:56;;;;;;;26.70;13.20;;;3.30;99.90;;;;;;5053450;28;20443;-52
2020/12/08 13:20:23;;;;;;;24.43;12.03;;;3.00;99.90;;;;;;5053535;28;20470;-53
2020/12/08 13:26:22;;;;;;;25.10;12.63;;;2.70;99.90;;;;;;5057432;28;20437;-53
2020/12/08 13:28:48;;;;;;;27.33;12.73;;;2.70;99.90;;;;;;5053281;28;20483;-53
2020/12/08 13:31:15;;;;;;;27.90;14.60;;;2.70;99.90;;;;;;5055888;28;20487;-53
2020/12/08 13:33:41;;;;;;;26.87;13.57;;;2.80;99.90;;;;;;5059031;28;20980;-53